createdAt,value
2023-04-21T00:01:44.991Z,10.55
2023-04-21T00:04:14.053Z,9.95
2023-04-21T00:06:41.715Z,9.70
2023-04-21T00:09:09.762Z,9.25
2023-04-21T00:11:37.311Z,9.98
2023-04-21T00:14:04.503Z,8.50
2023-04-21T00:16:31.835Z,8.35
2023-04-21T00:18:59.491Z,10.80
2023-04-21T00:21:26.877Z,8.65
2023-04-21T00:23:54.230Z,8.73
2023-04-21T00:26:21.466Z,7.78
2023-04-21T00:28:50.715Z,8.73
2023-04-21T00:31:17.981Z,8.43
2023-04-21T00:33:45.379Z,8.50
2023-04-21T00:36:12.901Z,8.20
2023-04-21T00:38:40.044Z,7.80
2023-04-21T00:41:08.750Z,9.07
2023-04-21T00:43:58.300Z,8.70
2023-04-21T00:46:25.902Z,8.70
2023-04-21T00:48:53.924Z,8.05
2023-04-21T00:51:21.635Z,7.75
2023-04-21T00:53:50.227Z,8.75
2023-04-21T00:56:18.945Z,8.15
2023-04-21T00:58:46.378Z,8.20
2023-04-21T01:01:14.507Z,8.63
2023-04-21T01:03:47.681Z,8.48
2023-04-21T01:06:15.104Z,9.03
2023-04-21T01:08:43.316Z,9.38
2023-04-21T01:11:12.292Z,9.40
2023-04-21T01:13:41.681Z,8.52
2023-04-21T01:16:08.879Z,9.68
2023-04-21T01:18:37.029Z,8.57
2023-04-21T01:21:06.233Z,8.38
2023-04-21T01:23:35.028Z,7.18
2023-04-21T01:26:02.265Z,7.20
2023-04-21T01:28:29.404Z,8.15
2023-04-21T01:30:56.695Z,7.43
2023-04-21T01:33:24.067Z,7.40
2023-04-21T01:35:51.456Z,7.22
2023-04-21T01:38:20.442Z,7.60
2023-04-21T01:40:53.940Z,7.15
2023-04-21T01:43:25.302Z,6.53
2023-04-21T01:45:53.137Z,7.50
2023-04-21T01:48:20.458Z,6.88
2023-04-21T01:50:47.729Z,6.55
2023-04-21T01:53:15.214Z,7.47
2023-04-21T01:55:42.431Z,6.80
2023-04-21T01:58:10.461Z,6.22
2023-04-21T02:00:37.679Z,5.78
2023-04-21T02:03:05.782Z,6.28
2023-04-21T02:05:33.068Z,6.60
2023-04-21T02:08:00.374Z,6.47
2023-04-21T02:10:27.623Z,6.75
2023-04-21T02:12:54.845Z,6.38
2023-04-21T02:15:22.093Z,6.60
2023-04-21T02:17:49.817Z,6.65
2023-04-21T02:20:17.044Z,6.40
2023-04-21T02:22:44.233Z,6.18
2023-04-21T02:25:11.524Z,7.40
2023-04-21T02:27:39.538Z,6.90
2023-04-21T02:30:08.101Z,6.68
2023-04-21T02:32:35.476Z,5.85
2023-04-21T02:35:05.359Z,6.57
2023-04-21T02:37:32.559Z,6.05
2023-04-21T02:40:04.160Z,5.88
2023-04-21T02:42:34.846Z,6.65
2023-04-21T02:45:02.240Z,6.78
2023-04-21T02:47:29.489Z,6.05
2023-04-21T02:49:57.757Z,5.40
2023-04-21T02:52:24.990Z,5.88
2023-04-21T02:54:52.371Z,5.47
2023-04-21T02:57:19.579Z,5.28
2023-04-21T02:59:46.840Z,6.47
2023-04-21T03:02:14.162Z,6.30
2023-04-21T03:04:41.639Z,5.53
2023-04-21T03:07:14.727Z,5.50
2023-04-21T03:09:42.041Z,5.43
2023-04-21T03:12:09.252Z,4.55
2023-04-21T03:14:36.668Z,5.50
2023-04-21T03:17:04.002Z,6.47
2023-04-21T03:19:33.223Z,5.78
2023-04-21T03:22:00.517Z,4.95
2023-04-21T03:24:28.415Z,4.57
2023-04-21T03:26:58.235Z,5.85
2023-04-21T03:29:25.609Z,6.70
2023-04-21T03:31:53.035Z,5.35
2023-04-21T03:34:20.923Z,5.97
2023-04-21T03:36:48.350Z,5.88
2023-04-21T03:39:20.054Z,5.82
2023-04-21T03:41:48.807Z,6.28
2023-04-21T03:44:16.253Z,5.07
2023-04-21T03:46:43.542Z,5.30
2023-04-21T03:49:10.787Z,5.45
2023-04-21T03:51:37.997Z,4.88
2023-04-21T03:54:05.191Z,5.60
2023-04-21T03:56:32.397Z,5.65
2023-04-21T03:58:59.710Z,5.70
2023-04-21T04:01:27.087Z,5.78
2023-04-21T04:03:54.352Z,5.75
2023-04-21T04:06:21.870Z,6.00
2023-04-21T04:08:49.122Z,5.90
2023-04-21T04:11:16.351Z,6.53
2023-04-21T04:13:43.539Z,6.22
2023-04-21T04:16:10.781Z,5.53
2023-04-21T04:18:38.040Z,6.72
2023-04-21T04:21:09.118Z,5.78
2023-04-21T04:23:36.665Z,5.35
2023-04-21T04:26:06.837Z,4.60
2023-04-21T04:28:35.006Z,5.57
2023-04-21T04:31:03.146Z,5.30
2023-04-21T04:33:30.687Z,5.57
2023-04-21T04:35:58.392Z,5.50
2023-04-21T04:38:25.618Z,5.28
2023-04-21T04:40:57.705Z,5.03
2023-04-21T04:43:25.634Z,4.10
2023-04-21T04:45:53.421Z,4.35
2023-04-21T04:48:20.761Z,4.05
2023-04-21T04:50:48.076Z,4.78
2023-04-21T04:53:15.324Z,4.40
2023-04-21T04:55:42.559Z,2.92
2023-04-21T04:58:09.862Z,3.05
2023-04-21T05:00:37.162Z,3.90
2023-04-21T05:03:05.086Z,3.38
2023-04-21T05:05:32.664Z,2.72
2023-04-21T05:07:59.936Z,3.35
2023-04-21T05:10:27.239Z,3.78
2023-04-21T05:12:55.177Z,3.10
2023-04-21T05:15:23.150Z,3.13
2023-04-21T05:17:50.578Z,3.47
2023-04-21T05:20:17.929Z,3.00
2023-04-21T05:22:45.134Z,3.15
2023-04-21T05:25:15.747Z,4.20
2023-04-21T05:30:11.522Z,2.72
2023-04-21T05:32:38.962Z,4.13
2023-04-21T05:35:07.092Z,3.28
2023-04-21T05:37:34.292Z,3.33
2023-04-21T05:40:01.754Z,2.95
2023-04-21T05:42:29.073Z,3.00
2023-04-21T05:44:56.327Z,3.85
2023-04-21T05:47:23.588Z,4.22
2023-04-21T05:49:55.044Z,3.90
2023-04-21T05:52:22.350Z,2.80
2023-04-21T05:54:49.677Z,3.38
2023-04-21T05:57:17.810Z,3.40
2023-04-21T05:59:45.384Z,4.03
2023-04-21T06:02:12.920Z,4.47
2023-04-21T06:04:40.560Z,4.15
2023-04-21T06:07:09.775Z,4.00
2023-04-21T06:09:37.347Z,3.53
2023-04-21T06:12:04.832Z,5.75
2023-04-21T06:14:32.285Z,5.28
2023-04-21T06:16:59.669Z,6.13
2023-04-21T06:19:26.948Z,5.90
2023-04-21T06:21:54.134Z,6.40
2023-04-21T06:24:25.595Z,7.03
2023-04-21T06:26:53.602Z,6.00
2023-04-21T06:29:21.134Z,6.32
2023-04-21T06:31:48.565Z,6.13
2023-04-21T06:34:16.405Z,5.80
2023-04-21T06:36:43.626Z,7.30
2023-04-21T06:39:10.988Z,6.07
2023-04-21T06:41:38.341Z,5.47
2023-04-21T06:44:05.593Z,5.53
2023-04-21T06:46:32.930Z,5.28
2023-04-21T06:49:00.162Z,4.82
2023-04-21T06:51:27.376Z,5.10
2023-04-21T06:53:54.629Z,5.57
2023-04-21T06:56:22.000Z,5.85
2023-04-21T06:58:49.261Z,5.22
2023-04-21T07:01:16.564Z,5.82
2023-04-21T07:03:43.961Z,4.95
2023-04-21T07:06:12.372Z,5.85
2023-04-21T07:08:41.238Z,5.47
2023-04-21T07:11:08.583Z,5.10
2023-04-21T07:13:35.856Z,5.15
2023-04-21T07:16:03.173Z,5.72
2023-04-21T07:18:30.391Z,5.60
2023-04-21T07:20:57.749Z,5.97
2023-04-21T07:23:25.046Z,6.28
2023-04-21T07:25:52.586Z,6.57
2023-04-21T07:28:19.870Z,6.90
2023-04-21T07:30:47.306Z,6.80
2023-04-21T07:33:14.720Z,6.03
2023-04-21T07:35:41.957Z,6.68
2023-04-21T07:38:09.883Z,7.43
2023-04-21T07:40:37.202Z,7.22
2023-04-21T07:43:04.585Z,8.57
2023-04-21T07:45:31.809Z,9.02
2023-04-21T07:47:59.425Z,8.50
2023-04-21T07:50:26.816Z,8.80
2023-04-21T07:52:54.295Z,8.77
2023-04-21T07:55:21.621Z,8.68
2023-04-21T07:57:49.100Z,9.48
2023-04-21T08:00:17.127Z,9.55
2023-04-21T08:02:44.457Z,8.52
2023-04-21T08:05:11.972Z,7.97
2023-04-21T08:07:39.849Z,8.55
2023-04-21T08:10:08.793Z,7.60
2023-04-21T08:12:36.031Z,8.13
2023-04-21T08:15:07.708Z,8.50
2023-04-21T08:17:35.197Z,8.63
2023-04-21T08:20:03.437Z,8.10
2023-04-21T08:22:31.466Z,8.27
2023-04-21T08:24:58.861Z,8.00
2023-04-21T08:27:26.274Z,7.80
2023-04-21T08:29:53.478Z,8.55
2023-04-21T08:32:24.633Z,9.07
2023-04-21T08:34:54.873Z,8.82
2023-04-21T08:37:23.082Z,7.82
2023-04-21T08:39:54.570Z,8.68
2023-04-21T08:42:21.878Z,8.73
2023-04-21T08:44:49.196Z,9.13
2023-04-21T08:47:16.482Z,8.73
2023-04-21T08:49:45.466Z,9.25
2023-04-21T08:52:16.767Z,8.98
2023-04-21T08:54:44.132Z,7.75
2023-04-21T08:57:15.641Z,7.20
2023-04-21T08:59:44.980Z,7.05
2023-04-21T09:02:17.401Z,6.85
2023-04-21T09:04:51.976Z,7.18
2023-04-21T09:07:32.257Z,6.93
2023-04-21T09:10:03.324Z,6.50
2023-04-21T09:12:30.861Z,7.30
2023-04-21T09:14:58.515Z,6.60
2023-04-21T09:17:36.384Z,6.15
2023-04-21T09:20:25.153Z,6.38
2023-04-21T09:22:52.642Z,6.40
2023-04-21T09:25:23.310Z,7.20
2023-04-21T09:27:51.187Z,6.78
2023-04-21T09:30:22.760Z,6.97
2023-04-21T09:32:50.120Z,5.22
2023-04-21T09:35:17.620Z,6.30
2023-04-21T09:37:44.926Z,6.82
2023-04-21T09:40:18.449Z,6.40
2023-04-21T09:42:47.335Z,6.93
2023-04-21T09:47:55.919Z,6.72
2023-04-21T09:50:51.162Z,6.40
2023-04-21T09:53:19.240Z,6.63
2023-04-21T09:55:49.689Z,6.35
2023-04-21T09:58:24.609Z,6.95
2023-04-21T10:00:53.647Z,5.22
2023-04-21T10:03:26.423Z,5.30
2023-04-21T10:05:54.211Z,5.50
2023-04-21T10:08:22.087Z,5.82
2023-04-21T10:10:49.755Z,5.70
2023-04-21T10:13:18.798Z,7.50
2023-04-21T10:15:46.206Z,6.18
2023-04-21T10:18:23.388Z,6.95
2023-04-21T10:21:08.520Z,6.20
2023-04-21T10:23:49.154Z,6.65
2023-04-21T10:26:32.753Z,5.97
2023-04-21T10:29:02.355Z,5.72
2023-04-21T10:31:39.338Z,8.23
2023-04-21T10:34:09.793Z,6.35
2023-04-21T10:36:47.049Z,6.28
2023-04-21T10:39:31.394Z,6.50
2023-04-21T10:42:25.076Z,5.97
2023-04-21T10:44:53.423Z,5.90
2023-04-21T10:47:38.792Z,6.07
2023-04-21T10:50:27.925Z,5.55
2023-04-21T10:52:59.603Z,5.27
2023-04-21T10:55:29.083Z,5.85
2023-04-21T10:57:56.735Z,5.90
2023-04-21T11:00:25.378Z,5.90
2023-04-21T11:03:02.020Z,5.50
2023-04-21T11:05:38.730Z,5.80
2023-04-21T11:08:09.697Z,5.70
2023-04-21T11:10:47.096Z,5.90
2023-04-21T11:13:14.328Z,6.10
2023-04-21T11:15:41.891Z,5.40
2023-04-21T11:18:09.944Z,5.65
2023-04-21T11:20:42.325Z,5.65
2023-04-21T11:23:09.542Z,5.05
2023-04-21T11:25:36.687Z,5.50
2023-04-21T11:28:05.016Z,5.30
2023-04-21T11:30:35.886Z,5.72
2023-04-21T11:33:03.345Z,5.57
2023-04-21T11:35:32.350Z,5.15
2023-04-21T11:38:04.515Z,5.37
2023-04-21T11:40:45.790Z,4.43
2023-04-21T11:43:13.138Z,5.32
2023-04-21T11:45:43.275Z,5.22
2023-04-21T11:48:17.977Z,4.53
2023-04-21T11:50:51.755Z,5.07
2023-04-21T11:53:20.181Z,5.72
2023-04-21T11:55:47.604Z,4.57
2023-04-21T11:58:16.564Z,5.15
2023-04-21T12:00:46.904Z,5.87
2023-04-21T12:03:14.853Z,5.32
2023-04-21T12:05:42.314Z,5.45
2023-04-21T12:08:16.437Z,5.35
2023-04-21T12:10:48.774Z,5.57
2023-04-21T12:13:28.803Z,5.68
2023-04-21T12:15:56.186Z,5.10
2023-04-21T12:18:28.385Z,5.72
2023-04-21T12:20:57.094Z,5.43
2023-04-21T12:23:24.366Z,4.80
2023-04-21T12:25:52.073Z,5.45
2023-04-21T12:28:19.320Z,5.63
2023-04-21T12:30:46.577Z,5.97
2023-04-21T12:33:13.986Z,5.53
2023-04-21T12:35:41.319Z,6.50
2023-04-21T12:38:08.539Z,5.28
2023-04-21T12:40:35.972Z,5.85
2023-04-21T12:43:03.293Z,5.70
2023-04-21T12:45:31.995Z,5.22
2023-04-21T12:48:00.028Z,5.60
2023-04-21T12:50:27.345Z,5.68
2023-04-21T12:52:55.398Z,5.38
2023-04-21T12:55:23.293Z,5.10
2023-04-21T12:57:51.019Z,6.30
2023-04-21T13:00:18.952Z,5.47
2023-04-21T13:02:46.774Z,6.30
2023-04-21T13:05:14.902Z,5.70
2023-04-21T13:07:42.226Z,6.75
2023-04-21T13:10:10.052Z,5.10
2023-04-21T13:12:37.506Z,5.38
2023-04-21T13:15:05.716Z,6.35
2023-04-21T13:17:33.013Z,6.68
2023-04-21T13:20:00.546Z,6.32
2023-04-21T13:22:27.751Z,5.78
2023-04-21T13:24:55.027Z,5.70
2023-04-21T13:27:22.506Z,6.65
2023-04-21T13:29:49.778Z,6.15
2023-04-21T13:32:17.169Z,6.10
2023-04-21T13:34:44.383Z,5.63
2023-04-21T13:37:16.098Z,5.03
2023-04-21T13:39:43.570Z,5.68
2023-04-21T13:42:11.499Z,5.22
2023-04-21T13:44:38.920Z,5.28
2023-04-21T13:47:08.779Z,5.05
2023-04-21T13:49:36.408Z,5.05
2023-04-21T13:52:03.834Z,4.55
2023-04-21T13:54:31.514Z,5.25
2023-04-21T13:56:59.304Z,5.40
2023-04-21T13:59:26.652Z,6.82
2023-04-21T14:01:53.970Z,5.13
2023-04-21T14:04:22.030Z,5.35
2023-04-21T14:06:50.970Z,5.70
2023-04-21T14:09:18.444Z,5.43
2023-04-21T14:11:45.995Z,4.85
2023-04-21T14:16:41.347Z,4.90
2023-04-21T14:19:08.701Z,5.45
2023-04-21T14:21:36.187Z,4.72
2023-04-21T14:24:03.474Z,4.95
2023-04-21T14:26:31.318Z,4.30
2023-04-21T14:29:00.134Z,4.90
2023-04-21T14:31:28.652Z,4.57
2023-04-21T14:33:56.452Z,6.50
2023-04-21T14:36:23.746Z,4.00
2023-04-21T14:38:51.094Z,4.53
2023-04-21T14:41:18.802Z,4.70
2023-04-21T14:43:47.598Z,4.03
2023-04-21T14:46:16.391Z,4.47
2023-04-21T14:48:44.755Z,3.80
2023-04-21T14:51:12.036Z,4.55
2023-04-21T14:53:40.718Z,4.38
2023-04-21T14:56:08.175Z,4.18
2023-04-21T14:58:35.443Z,4.43
2023-04-21T15:01:02.961Z,3.75
2023-04-21T15:03:30.588Z,4.18
2023-04-21T15:05:58.179Z,4.60
2023-04-21T15:08:25.652Z,4.30
2023-04-21T15:10:53.847Z,3.70
2023-04-21T15:13:21.773Z,3.60
2023-04-21T15:15:51.586Z,4.25
2023-04-21T15:18:19.088Z,3.55
2023-04-21T15:20:46.830Z,3.03
2023-04-21T15:23:14.797Z,4.25
2023-04-21T15:25:42.560Z,3.35
2023-04-21T15:28:10.027Z,4.38
2023-04-21T15:30:37.578Z,3.47
2023-04-21T15:33:05.107Z,3.63
2023-04-21T15:35:32.435Z,3.45
2023-04-21T15:37:59.667Z,4.20
2023-04-21T15:40:27.253Z,3.17
2023-04-21T15:42:54.834Z,3.28
2023-04-21T15:45:22.149Z,3.55
2023-04-21T15:47:49.448Z,3.20
2023-04-21T15:50:17.128Z,3.42
2023-04-21T15:52:44.503Z,2.70
2023-04-21T15:55:12.529Z,2.97
2023-04-21T15:57:39.863Z,4.40
2023-04-21T16:00:10.669Z,3.13
2023-04-21T16:02:38.436Z,3.15
2023-04-21T16:05:06.517Z,3.17
2023-04-21T16:07:34.271Z,2.97
2023-04-21T16:10:01.486Z,2.90
2023-04-21T16:12:28.881Z,3.08
2023-04-21T16:15:04.082Z,3.47
2023-04-21T16:17:36.955Z,2.75
2023-04-21T16:20:08.174Z,3.03
2023-04-21T16:22:35.991Z,3.15
2023-04-21T16:25:03.453Z,3.08
2023-04-21T16:27:30.871Z,2.80
2023-04-21T16:29:58.462Z,3.10
2023-04-21T16:32:26.103Z,3.38
2023-04-21T16:34:53.560Z,3.20
2023-04-21T16:37:20.805Z,3.33
2023-04-21T16:39:48.061Z,3.05
2023-04-21T16:42:15.759Z,3.78
2023-04-21T16:44:42.940Z,3.13
2023-04-21T16:47:10.368Z,2.97
2023-04-21T16:49:37.644Z,3.40
2023-04-21T16:52:05.005Z,2.80
2023-04-21T16:54:32.464Z,3.13
2023-04-21T16:56:59.756Z,2.95
2023-04-21T16:59:27.041Z,2.70
2023-04-21T17:01:54.269Z,3.08
2023-04-21T17:04:21.653Z,4.18
2023-04-21T17:06:48.940Z,2.88
2023-04-21T17:09:16.552Z,2.92
2023-04-21T17:11:45.973Z,3.55
2023-04-21T17:14:13.345Z,2.45
2023-04-21T17:16:40.634Z,3.75
2023-04-21T17:19:07.917Z,2.95
2023-04-21T17:21:35.193Z,2.88
2023-04-21T17:24:02.422Z,2.60
2023-04-21T17:26:29.729Z,2.88
2023-04-21T17:28:57.677Z,2.95
2023-04-21T17:31:25.047Z,3.35
2023-04-21T17:33:53.452Z,3.13
2023-04-21T17:36:20.951Z,4.55
2023-04-21T17:38:49.104Z,3.95
2023-04-21T17:41:16.757Z,3.80
2023-04-21T17:43:44.206Z,3.53
2023-04-21T17:46:11.646Z,3.45
2023-04-21T17:48:39.112Z,4.05
2023-04-21T17:51:06.690Z,3.97
2023-04-21T17:53:34.058Z,3.42
2023-04-21T17:56:01.734Z,3.47
2023-04-21T17:58:29.358Z,3.70
2023-04-21T18:00:57.172Z,4.45
2023-04-21T18:03:24.969Z,3.63
2023-04-21T18:05:52.720Z,4.43
2023-04-21T18:08:21.097Z,4.50
2023-04-21T18:10:48.527Z,4.35
2023-04-21T18:13:15.971Z,4.53
2023-04-21T18:15:43.235Z,3.83
2023-04-21T18:18:10.715Z,4.45
2023-04-21T18:20:38.324Z,4.90
2023-04-21T18:23:05.785Z,5.32
2023-04-21T18:25:42.134Z,4.63
2023-04-21T18:28:13.517Z,4.72
2023-04-21T18:30:41.455Z,4.60
2023-04-21T18:33:12.195Z,4.55
2023-04-21T18:35:41.690Z,5.30
2023-04-21T18:38:11.658Z,4.80
2023-04-21T18:40:40.795Z,4.82
2023-04-21T18:43:09.875Z,4.70
2023-04-21T18:45:38.677Z,4.72
2023-04-21T18:48:06.434Z,4.45
2023-04-21T18:50:39.360Z,4.47
2023-04-21T18:53:08.009Z,5.43
2023-04-21T18:55:36.471Z,4.45
2023-04-21T18:58:04.375Z,4.20
2023-04-21T19:00:32.188Z,4.82
2023-04-21T19:03:04.322Z,4.60
2023-04-21T19:05:32.231Z,4.65
2023-04-21T19:07:59.394Z,4.40
2023-04-21T19:10:27.796Z,4.95
2023-04-21T19:12:55.333Z,5.63
2023-04-21T19:15:23.084Z,4.60
2023-04-21T19:17:50.435Z,4.57
2023-04-21T19:20:18.640Z,4.40
2023-04-21T19:22:45.856Z,5.15
2023-04-21T19:25:13.210Z,4.82
2023-04-21T19:27:41.651Z,4.82
2023-04-21T19:30:09.853Z,5.05
2023-04-21T19:32:37.872Z,4.57
2023-04-21T19:35:05.776Z,5.68
2023-04-21T19:37:35.006Z,5.18
2023-04-21T19:40:03.981Z,4.32
2023-04-21T19:42:31.401Z,5.68
2023-04-21T19:44:58.845Z,6.00
2023-04-21T19:47:26.359Z,6.45
2023-04-21T19:49:53.970Z,4.22
2023-04-21T19:52:21.314Z,5.55
2023-04-21T19:54:48.633Z,5.30
2023-04-21T19:57:16.037Z,4.85
2023-04-21T19:59:43.315Z,5.20
2023-04-21T20:02:10.698Z,6.38
2023-04-21T20:04:38.378Z,5.78
2023-04-21T20:07:05.811Z,5.53
2023-04-21T20:09:33.009Z,7.60
2023-04-21T20:12:00.399Z,7.90
2023-04-21T20:14:27.704Z,7.93
2023-04-21T20:16:54.964Z,7.03
2023-04-21T20:19:23.020Z,7.80
2023-04-21T20:21:50.278Z,6.55
2023-04-21T20:24:17.576Z,7.38
2023-04-21T20:26:45.552Z,8.98
2023-04-21T20:29:12.920Z,8.30
2023-04-21T20:31:40.148Z,8.10
2023-04-21T20:34:08.464Z,7.70
2023-04-21T20:36:37.188Z,8.32
2023-04-21T20:39:06.610Z,7.70
2023-04-21T20:41:34.003Z,8.73
2023-04-21T20:44:01.668Z,8.85
2023-04-21T20:46:31.708Z,9.68
2023-04-21T20:48:58.994Z,11.45
2023-04-21T20:51:26.938Z,10.20
2023-04-21T20:53:54.186Z,8.85
2023-04-21T20:56:21.777Z,10.10
2023-04-21T20:58:49.195Z,9.50
2023-04-21T21:01:16.791Z,9.75
2023-04-21T21:03:47.441Z,8.68
2023-04-21T21:06:14.978Z,9.07
2023-04-21T21:08:42.720Z,9.20
2023-04-21T21:11:09.946Z,8.70
2023-04-21T21:13:37.209Z,8.65
2023-04-21T21:16:04.929Z,8.48
2023-04-21T21:18:34.668Z,8.65
2023-04-21T21:21:02.322Z,7.10
2023-04-21T21:23:29.559Z,6.18
2023-04-21T21:25:58.685Z,6.38
2023-04-21T21:28:26.399Z,6.10
2023-04-21T21:30:53.763Z,7.05
2023-04-21T21:33:21.024Z,7.07
2023-04-21T21:35:48.954Z,6.38
2023-04-21T21:38:16.780Z,6.00
2023-04-21T21:40:44.241Z,6.80
2023-04-21T21:43:11.498Z,7.72
2023-04-21T21:45:39.054Z,6.78
2023-04-21T21:48:06.465Z,7.50
2023-04-21T21:50:33.865Z,6.32
2023-04-21T21:53:01.189Z,6.15
2023-04-21T21:55:28.730Z,6.63
2023-04-21T21:57:56.069Z,5.72
2023-04-21T22:00:23.963Z,8.15
2023-04-21T22:02:51.442Z,6.55
2023-04-21T22:05:18.942Z,7.13
2023-04-21T22:07:46.177Z,6.47
2023-04-21T22:10:13.575Z,6.97
2023-04-21T22:12:41.125Z,6.95
2023-04-21T22:15:09.476Z,6.25
2023-04-21T22:17:38.078Z,6.65
2023-04-21T22:20:08.413Z,6.03
2023-04-21T22:22:36.416Z,6.63
2023-04-21T22:25:04.122Z,6.25
2023-04-21T22:27:33.657Z,6.20
2023-04-21T22:30:02.576Z,5.90
2023-04-21T22:32:32.362Z,5.85
2023-04-21T22:35:00.535Z,6.30
2023-04-21T22:37:28.569Z,6.35
2023-04-21T22:39:57.492Z,5.60
2023-04-21T22:42:24.841Z,6.35
2023-04-21T22:44:52.180Z,5.93
2023-04-21T22:47:19.498Z,5.93
2023-04-21T22:49:46.816Z,5.85
2023-04-21T22:52:14.093Z,6.47
2023-04-21T22:54:41.459Z,6.55
2023-04-21T22:57:08.967Z,7.97
2023-04-21T22:59:36.520Z,5.85
2023-04-21T23:02:05.510Z,7.97
2023-04-21T23:04:32.958Z,6.32
2023-04-21T23:07:00.186Z,5.68
2023-04-21T23:09:27.702Z,5.57
2023-04-21T23:11:55.011Z,6.63
2023-04-21T23:14:22.336Z,5.88
2023-04-21T23:16:49.684Z,6.07
2023-04-21T23:19:16.967Z,5.22
2023-04-21T23:21:44.558Z,6.10
2023-04-21T23:24:11.892Z,6.00
2023-04-21T23:26:39.118Z,5.70
2023-04-21T23:29:06.819Z,5.10
2023-04-21T23:31:34.281Z,6.00
2023-04-21T23:34:01.628Z,5.95
2023-04-21T23:36:28.829Z,5.53
2023-04-21T23:38:56.181Z,5.60
2023-04-21T23:41:23.539Z,5.93
2023-04-21T23:43:50.719Z,5.10
2023-04-21T23:46:17.963Z,5.10
2023-04-21T23:48:45.234Z,5.30
2023-04-21T23:51:12.799Z,5.10
2023-04-21T23:53:40.092Z,5.05
2023-04-21T23:56:07.535Z,5.15
2023-04-21T23:58:34.925Z,4.88
